sensor_id;sensor_type;location;lat;lon;timestamp;pressure;altitude;pressure_sealevel;temperature;humidity
54455;BME280;40364;52.270;10.546;2023-09-08T00:02:18;101059.69;;;31.38;36.99
54455;BME280;40364;52.270;10.546;2023-09-08T00:04:45;101052.34;;;30.97;37.43
54455;BME280;40364;52.270;10.546;2023-09-08T00:07:11;101057.63;;;31.39;36.80
54455;BME280;40364;52.270;10.546;2023-09-08T00:09:38;101061.78;;;31.38;37.17
54455;BME280;40364;52.270;10.546;2023-09-08T00:12:06;101058.13;;;31.65;36.87
54455;BME280;40364;52.270;10.546;2023-09-08T00:14:33;101057.28;;;31.37;36.99
54455;BME280;40364;52.270;10.546;2023-09-08T00:16:59;101059.38;;;31.36;36.93
54455;BME280;40364;52.270;10.546;2023-09-08T00:19:26;101053.09;;;31.29;37.57
54455;BME280;40364;52.270;10.546;2023-09-08T00:21:53;101055.34;;;31.34;37.33
54455;BME280;40364;52.270;10.546;2023-09-08T00:24:20;101053.75;;;31.33;37.56
54455;BME280;40364;52.270;10.546;2023-09-08T00:26:46;101059.94;;;31.13;37.66
54455;BME280;40364;52.270;10.546;2023-09-08T00:29:14;101059.72;;;31.47;37.55
54455;BME280;40364;52.270;10.546;2023-09-08T00:31:41;101054.56;;;31.33;37.40
54455;BME280;40364;52.270;10.546;2023-09-08T00:34:08;101057.94;;;31.41;37.17
54455;BME280;40364;52.270;10.546;2023-09-08T00:36:36;101065.88;;;31.19;37.71
54455;BME280;40364;52.270;10.546;2023-09-08T00:39:03;101054.19;;;31.22;37.36
54455;BME280;40364;52.270;10.546;2023-09-08T00:41:29;101059.25;;;31.09;37.41
54455;BME280;40364;52.270;10.546;2023-09-08T00:43:56;101054.84;;;31.26;37.56
54455;BME280;40364;52.270;10.546;2023-09-08T00:46:24;101052.81;;;31.54;37.28
54455;BME280;40364;52.270;10.546;2023-09-08T00:48:52;101052.16;;;31.32;37.63
54455;BME280;40364;52.270;10.546;2023-09-08T00:51:20;101067.56;;;31.47;37.24
54455;BME280;40364;52.270;10.546;2023-09-08T00:53:47;101060.53;;;31.08;37.62
54455;BME280;40364;52.270;10.546;2023-09-08T00:56:14;101051.66;;;31.24;37.61
54455;BME280;40364;52.270;10.546;2023-09-08T00:58:40;101061.06;;;31.16;37.50
54455;BME280;40364;52.270;10.546;2023-09-08T01:01:07;101052.13;;;31.13;37.58
54455;BME280;40364;52.270;10.546;2023-09-08T01:03:35;101050.44;;;31.43;37.89
54455;BME280;40364;52.270;10.546;2023-09-08T01:06:02;101051.66;;;31.24;37.92
54455;BME280;40364;52.270;10.546;2023-09-08T01:08:29;101055.00;;;31.23;37.79
54455;BME280;40364;52.270;10.546;2023-09-08T01:10:56;101052.50;;;31.03;38.17
54455;BME280;40364;52.270;10.546;2023-09-08T01:13:22;101057.06;;;31.13;37.81
54455;BME280;40364;52.270;10.546;2023-09-08T01:15:49;101046.53;;;31.28;37.14
54455;BME280;40364;52.270;10.546;2023-09-08T01:18:16;101044.34;;;31.01;37.71
54455;BME280;40364;52.270;10.546;2023-09-08T01:21:05;101037.38;;;31.70;36.84
54455;BME280;40364;52.270;10.546;2023-09-08T01:23:56;101041.28;;;31.36;37.24
54455;BME280;40364;52.270;10.546;2023-09-08T01:26:29;101048.00;;;31.33;37.53
54455;BME280;40364;52.270;10.546;2023-09-08T01:28:58;101041.00;;;30.63;38.63
54455;BME280;40364;52.270;10.546;2023-09-08T01:31:26;101035.50;;;30.56;38.69
54455;BME280;40364;52.270;10.546;2023-09-08T01:33:52;101037.38;;;30.49;38.43
54455;BME280;40364;52.270;10.546;2023-09-08T01:36:19;101036.72;;;30.45;38.73
54455;BME280;40364;52.270;10.546;2023-09-08T01:38:46;101039.88;;;30.38;38.64
54455;BME280;40364;52.270;10.546;2023-09-08T01:41:12;101039.91;;;29.82;39.03
54455;BME280;40364;52.270;10.546;2023-09-08T01:43:40;101044.78;;;30.91;38.05
54455;BME280;40364;52.270;10.546;2023-09-08T01:46:07;101038.63;;;30.70;38.36
54455;BME280;40364;52.270;10.546;2023-09-08T01:48:33;101037.88;;;30.79;37.85
54455;BME280;40364;52.270;10.546;2023-09-08T01:51:00;101035.47;;;30.46;38.44
54455;BME280;40364;52.270;10.546;2023-09-08T01:53:27;101026.88;;;30.56;38.05
54455;BME280;40364;52.270;10.546;2023-09-08T01:55:53;101022.69;;;30.47;38.03
54455;BME280;40364;52.270;10.546;2023-09-08T01:58:20;101019.75;;;30.38;38.28
54455;BME280;40364;52.270;10.546;2023-09-08T02:00:49;101012.66;;;30.30;38.90
54455;BME280;40364;52.270;10.546;2023-09-08T02:03:16;101014.78;;;29.73;39.45
54455;BME280;40364;52.270;10.546;2023-09-08T02:05:43;101013.03;;;29.54;40.30
54455;BME280;40364;52.270;10.546;2023-09-08T02:08:09;101018.41;;;29.87;39.63
54455;BME280;40364;52.270;10.546;2023-09-08T02:10:39;101013.53;;;30.40;38.87
54455;BME280;40364;52.270;10.546;2023-09-08T02:13:05;101010.13;;;29.89;39.51
54455;BME280;40364;52.270;10.546;2023-09-08T02:15:35;101016.22;;;30.34;39.04
54455;BME280;40364;52.270;10.546;2023-09-08T02:18:05;101006.34;;;30.13;39.43
54455;BME280;40364;52.270;10.546;2023-09-08T02:20:32;101007.63;;;30.12;39.38
54455;BME280;40364;52.270;10.546;2023-09-08T02:23:04;101012.78;;;30.48;38.69
54455;BME280;40364;52.270;10.546;2023-09-08T02:27:58;101013.50;;;30.09;39.43
54455;BME280;40364;52.270;10.546;2023-09-08T02:30:24;101011.03;;;30.20;39.25
54455;BME280;40364;52.270;10.546;2023-09-08T02:32:51;101004.28;;;30.14;39.41
54455;BME280;40364;52.270;10.546;2023-09-08T02:35:19;100999.50;;;30.42;39.51
54455;BME280;40364;52.270;10.546;2023-09-08T02:37:45;101012.50;;;30.03;39.34
54455;BME280;40364;52.270;10.546;2023-09-08T02:40:12;101013.22;;;29.94;39.13
54455;BME280;40364;52.270;10.546;2023-09-08T02:42:38;101013.19;;;29.72;39.44
54455;BME280;40364;52.270;10.546;2023-09-08T02:45:06;101010.41;;;30.03;39.50
54455;BME280;40364;52.270;10.546;2023-09-08T02:47:33;101010.28;;;29.85;39.91
54455;BME280;40364;52.270;10.546;2023-09-08T02:49:59;101002.53;;;29.95;39.52
54455;BME280;40364;52.270;10.546;2023-09-08T02:52:27;100992.25;;;30.06;39.86
54455;BME280;40364;52.270;10.546;2023-09-08T02:54:54;101002.91;;;29.62;40.34
54455;BME280;40364;52.270;10.546;2023-09-08T02:57:21;100996.91;;;29.91;39.97
54455;BME280;40364;52.270;10.546;2023-09-08T02:59:51;101002.19;;;29.93;40.04
54455;BME280;40364;52.270;10.546;2023-09-08T03:02:17;100999.16;;;29.53;41.06
54455;BME280;40364;52.270;10.546;2023-09-08T03:04:44;100990.97;;;29.64;40.16
54455;BME280;40364;52.270;10.546;2023-09-08T03:07:11;101001.69;;;29.51;41.13
54455;BME280;40364;52.270;10.546;2023-09-08T03:09:39;100995.44;;;29.87;40.47
54455;BME280;40364;52.270;10.546;2023-09-08T03:12:06;100997.28;;;29.59;41.08
54455;BME280;40364;52.270;10.546;2023-09-08T03:14:32;100991.69;;;29.55;40.88
54455;BME280;40364;52.270;10.546;2023-09-08T03:16:59;100994.13;;;29.44;40.59
54455;BME280;40364;52.270;10.546;2023-09-08T03:19:26;100990.75;;;29.58;40.19
54455;BME280;40364;52.270;10.546;2023-09-08T03:21:52;100984.13;;;29.48;40.78
54455;BME280;40364;52.270;10.546;2023-09-08T03:24:19;100984.13;;;29.36;40.58
54455;BME280;40364;52.270;10.546;2023-09-08T03:26:47;100983.47;;;29.32;40.97
54455;BME280;40364;52.270;10.546;2023-09-08T03:29:13;100992.47;;;28.83;41.74
54455;BME280;40364;52.270;10.546;2023-09-08T03:31:40;100981.25;;;28.89;41.96
54455;BME280;40364;52.270;10.546;2023-09-08T03:34:06;100982.97;;;28.73;41.84
54455;BME280;40364;52.270;10.546;2023-09-08T03:36:33;100987.16;;;29.20;41.47
54455;BME280;40364;52.270;10.546;2023-09-08T03:39:01;100979.81;;;29.19;41.05
54455;BME280;40364;52.270;10.546;2023-09-08T03:41:27;100984.38;;;29.29;40.81
54455;BME280;40364;52.270;10.546;2023-09-08T03:43:55;100991.81;;;29.52;40.65
54455;BME280;40364;52.270;10.546;2023-09-08T03:46:22;100985.56;;;29.19;41.21
54455;BME280;40364;52.270;10.546;2023-09-08T03:48:50;100994.38;;;29.24;41.28
54455;BME280;40364;52.270;10.546;2023-09-08T03:51:17;100993.34;;;29.31;41.07
54455;BME280;40364;52.270;10.546;2023-09-08T03:53:44;100993.06;;;29.38;40.70
54455;BME280;40364;52.270;10.546;2023-09-08T03:56:10;100994.44;;;29.46;40.73
54455;BME280;40364;52.270;10.546;2023-09-08T03:58:37;100996.22;;;29.31;40.98
54455;BME280;40364;52.270;10.546;2023-09-08T04:01:05;100988.63;;;29.71;40.83
54455;BME280;40364;52.270;10.546;2023-09-08T04:03:31;100986.69;;;29.34;40.50
54455;BME280;40364;52.270;10.546;2023-09-08T04:05:58;100986.53;;;29.37;40.26
54455;BME280;40364;52.270;10.546;2023-09-08T04:08:24;100980.31;;;29.04;41.27
54455;BME280;40364;52.270;10.546;2023-09-08T04:10:51;100981.44;;;29.07;41.51
54455;BME280;40364;52.270;10.546;2023-09-08T04:13:17;100980.09;;;28.99;41.15
54455;BME280;40364;52.270;10.546;2023-09-08T04:15:44;100980.50;;;29.23;40.78
54455;BME280;40364;52.270;10.546;2023-09-08T04:18:12;100979.44;;;29.29;41.23
54455;BME280;40364;52.270;10.546;2023-09-08T04:20:39;100982.34;;;29.16;41.34
54455;BME280;40364;52.270;10.546;2023-09-08T04:23:06;100985.78;;;29.24;41.61
54455;BME280;40364;52.270;10.546;2023-09-08T04:25:32;100976.25;;;29.14;41.32
54455;BME280;40364;52.270;10.546;2023-09-08T04:27:59;100972.91;;;29.29;41.36
54455;BME280;40364;52.270;10.546;2023-09-08T04:30:26;100974.75;;;29.23;41.23
54455;BME280;40364;52.270;10.546;2023-09-08T04:32:53;100980.50;;;29.23;40.85
54455;BME280;40364;52.270;10.546;2023-09-08T04:35:21;100975.84;;;29.51;40.59
54455;BME280;40364;52.270;10.546;2023-09-08T04:37:48;100977.88;;;29.15;40.98
54455;BME280;40364;52.270;10.546;2023-09-08T04:40:14;100977.66;;;29.10;41.14
54455;BME280;40364;52.270;10.546;2023-09-08T04:42:41;100977.97;;;29.25;40.78
54455;BME280;40364;52.270;10.546;2023-09-08T04:45:08;100978.78;;;29.25;41.04
54455;BME280;40364;52.270;10.546;2023-09-08T04:47:35;100979.81;;;29.06;40.83
54455;BME280;40364;52.270;10.546;2023-09-08T04:50:03;100982.47;;;29.13;40.90
54455;BME280;40364;52.270;10.546;2023-09-08T04:52:31;100984.91;;;29.49;40.77
54455;BME280;40364;52.270;10.546;2023-09-08T04:54:57;100985.31;;;29.13;41.11
54455;BME280;40364;52.270;10.546;2023-09-08T04:57:24;100977.75;;;29.06;40.74
54455;BME280;40364;52.270;10.546;2023-09-08T04:59:51;100981.25;;;29.01;40.75
54455;BME280;40364;52.270;10.546;2023-09-08T05:02:17;100977.19;;;29.11;40.91
54455;BME280;40364;52.270;10.546;2023-09-08T05:04:44;100978.44;;;29.10;40.94
54455;BME280;40364;52.270;10.546;2023-09-08T05:07:11;100989.56;;;29.08;41.09
54455;BME280;40364;52.270;10.546;2023-09-08T05:09:40;100978.91;;;29.22;41.30
54455;BME280;40364;52.270;10.546;2023-09-08T05:12:06;100991.53;;;29.11;40.91
54455;BME280;40364;52.270;10.546;2023-09-08T05:14:33;100994.28;;;28.77;41.47
54455;BME280;40364;52.270;10.546;2023-09-08T05:17:00;100993.41;;;28.93;41.42
54455;BME280;40364;52.270;10.546;2023-09-08T05:19:26;100991.75;;;28.79;41.76
54455;BME280;40364;52.270;10.546;2023-09-08T05:21:53;100996.34;;;29.14;41.08
54455;BME280;40364;52.270;10.546;2023-09-08T05:24:20;100991.09;;;29.00;41.50
54455;BME280;40364;52.270;10.546;2023-09-08T05:26:49;100995.75;;;29.32;41.39
54455;BME280;40364;52.270;10.546;2023-09-08T05:29:15;100987.44;;;29.00;41.38
54455;BME280;40364;52.270;10.546;2023-09-08T05:31:42;100985.91;;;29.08;41.16
54455;BME280;40364;52.270;10.546;2023-09-08T05:34:09;100983.38;;;29.10;41.30
54455;BME280;40364;52.270;10.546;2023-09-08T05:36:36;100981.91;;;29.05;41.42
54455;BME280;40364;52.270;10.546;2023-09-08T05:39:03;100994.03;;;29.22;41.48
54455;BME280;40364;52.270;10.546;2023-09-08T05:41:30;100982.00;;;29.14;41.28
54455;BME280;40364;52.270;10.546;2023-09-08T05:43:58;100983.81;;;29.34;41.69
54455;BME280;40364;52.270;10.546;2023-09-08T05:46:25;100988.31;;;29.09;41.85
54455;BME280;40364;52.270;10.546;2023-09-08T05:48:51;100987.38;;;29.25;41.28
54455;BME280;40364;52.270;10.546;2023-09-08T05:51:18;100991.28;;;29.19;41.95
54455;BME280;40364;52.270;10.546;2023-09-08T05:53:45;100995.31;;;29.08;41.75
54455;BME280;40364;52.270;10.546;2023-09-08T05:56:11;100985.78;;;29.24;41.56
54455;BME280;40364;52.270;10.546;2023-09-08T05:58:38;100982.69;;;29.19;41.81
54455;BME280;40364;52.270;10.546;2023-09-08T06:01:06;100989.63;;;29.77;41.48
54455;BME280;40364;52.270;10.546;2023-09-08T06:03:33;100995.38;;;29.43;41.76
54455;BME280;40364;52.270;10.546;2023-09-08T06:05:59;100999.16;;;29.53;41.68
54455;BME280;40364;52.270;10.546;2023-09-08T06:08:26;100992.22;;;29.63;41.40
54455;BME280;40364;52.270;10.546;2023-09-08T06:10:53;100993.16;;;29.81;41.06
54455;BME280;40364;52.270;10.546;2023-09-08T06:13:19;100985.44;;;30.13;40.58
54455;BME280;40364;52.270;10.546;2023-09-08T06:15:46;100988.47;;;29.53;41.34
54455;BME280;40364;52.270;10.546;2023-09-08T06:18:14;100990.16;;;29.85;40.78
54455;BME280;40364;52.270;10.546;2023-09-08T06:20:44;100980.28;;;30.61;39.64
54455;BME280;40364;52.270;10.546;2023-09-08T06:23:11;100985.31;;;30.47;39.74
54455;BME280;40364;52.270;10.546;2023-09-08T06:25:38;100981.69;;;30.25;39.64
54455;BME280;40364;52.270;10.546;2023-09-08T06:28:05;100986.97;;;30.27;39.87
54455;BME280;40364;52.270;10.546;2023-09-08T06:30:32;100984.44;;;30.60;39.17
54455;BME280;40364;52.270;10.546;2023-09-08T06:32:58;100982.41;;;30.38;39.44
54455;BME280;40364;52.270;10.546;2023-09-08T06:35:27;100993.88;;;31.09;38.89
54455;BME280;40364;52.270;10.546;2023-09-08T06:37:53;100985.09;;;30.64;39.18
54455;BME280;40364;52.270;10.546;2023-09-08T06:40:20;100995.25;;;30.25;40.35
54455;BME280;40364;52.270;10.546;2023-09-08T06:42:47;100996.03;;;30.78;39.25
54455;BME280;40364;52.270;10.546;2023-09-08T06:45:13;100999.59;;;31.00;38.89
54455;BME280;40364;52.270;10.546;2023-09-08T06:47:40;100991.59;;;30.95;38.89
54455;BME280;40364;52.270;10.546;2023-09-08T06:50:08;100995.59;;;30.58;39.63
54455;BME280;40364;52.270;10.546;2023-09-08T06:52:36;101001.78;;;30.78;39.67
54455;BME280;40364;52.270;10.546;2023-09-08T06:55:03;100991.75;;;30.83;39.42
54455;BME280;40364;52.270;10.546;2023-09-08T06:57:30;100996.38;;;30.89;38.60
54455;BME280;40364;52.270;10.546;2023-09-08T06:59:57;100998.72;;;31.12;38.35
54455;BME280;40364;52.270;10.546;2023-09-08T07:02:23;100995.75;;;31.62;37.71
54455;BME280;40364;52.270;10.546;2023-09-08T07:04:50;100995.91;;;31.49;37.77
54455;BME280;40364;52.270;10.546;2023-09-08T07:07:17;100995.84;;;31.12;38.94
54455;BME280;40364;52.270;10.546;2023-09-08T07:09:47;101004.25;;;32.02;37.78
54455;BME280;40364;52.270;10.546;2023-09-08T07:12:13;101003.94;;;32.00;37.61
54455;BME280;40364;52.270;10.546;2023-09-08T07:14:40;101000.41;;;31.68;37.96
54455;BME280;40364;52.270;10.546;2023-09-08T07:17:06;100997.09;;;32.58;36.66
54455;BME280;40364;52.270;10.546;2023-09-08T07:19:33;101001.25;;;32.57;36.84
54455;BME280;40364;52.270;10.546;2023-09-08T07:21:59;101004.69;;;32.19;36.98
54455;BME280;40364;52.270;10.546;2023-09-08T07:24:26;100998.13;;;32.36;37.18
54455;BME280;40364;52.270;10.546;2023-09-08T07:26:54;101001.50;;;32.77;37.04
54455;BME280;40364;52.270;10.546;2023-09-08T07:29:21;100996.06;;;31.55;37.97
54455;BME280;40364;52.270;10.546;2023-09-08T07:31:47;101011.75;;;32.36;37.06
54455;BME280;40364;52.270;10.546;2023-09-08T07:34:14;101012.22;;;32.16;37.35
54455;BME280;40364;52.270;10.546;2023-09-08T07:36:41;101009.47;;;32.91;35.87
54455;BME280;40364;52.270;10.546;2023-09-08T07:39:07;100998.06;;;32.45;36.85
54455;BME280;40364;52.270;10.546;2023-09-08T07:41:34;101003.81;;;32.55;36.97
54455;BME280;40364;52.270;10.546;2023-09-08T07:44:03;101003.38;;;32.89;36.86
54455;BME280;40364;52.270;10.546;2023-09-08T07:46:29;101000.63;;;32.53;36.87
54455;BME280;40364;52.270;10.546;2023-09-08T07:48:57;101006.13;;;33.17;36.66
54455;BME280;40364;52.270;10.546;2023-09-08T07:51:24;101005.69;;;33.81;35.34
54455;BME280;40364;52.270;10.546;2023-09-08T07:53:51;101001.44;;;34.05;34.62
54455;BME280;40364;52.270;10.546;2023-09-08T07:56:18;100997.91;;;33.24;35.96
54455;BME280;40364;52.270;10.546;2023-09-08T07:58:44;100994.16;;;33.33;36.40
54455;BME280;40364;52.270;10.546;2023-09-08T08:01:13;100991.41;;;34.30;35.33
54455;BME280;40364;52.270;10.546;2023-09-08T08:03:40;100992.09;;;33.72;36.00
54455;BME280;40364;52.270;10.546;2023-09-08T08:06:07;100989.63;;;34.18;35.50
54455;BME280;40364;52.270;10.546;2023-09-08T08:08:33;100992.41;;;34.42;35.63
54455;BME280;40364;52.270;10.546;2023-09-08T08:11:08;100983.88;;;35.18;34.31
54455;BME280;40364;52.270;10.546;2023-09-08T08:13:35;100992.81;;;34.50;34.79
54455;BME280;40364;52.270;10.546;2023-09-08T08:16:01;100984.78;;;34.74;35.37
54455;BME280;40364;52.270;10.546;2023-09-08T08:18:29;100991.03;;;35.37;34.74
54455;BME280;40364;52.270;10.546;2023-09-08T08:20:56;100995.13;;;35.51;34.20
54455;BME280;40364;52.270;10.546;2023-09-08T08:23:22;100981.97;;;35.50;34.31
54455;BME280;40364;52.270;10.546;2023-09-08T08:25:49;100986.09;;;35.63;34.42
54455;BME280;40364;52.270;10.546;2023-09-08T08:28:16;100988.53;;;35.91;34.18
54455;BME280;40364;52.270;10.546;2023-09-08T08:30:43;100990.06;;;36.12;34.07
54455;BME280;40364;52.270;10.546;2023-09-08T08:33:09;100988.09;;;35.98;33.14
54455;BME280;40364;52.270;10.546;2023-09-08T08:35:37;100986.75;;;36.51;32.43
54455;BME280;40364;52.270;10.546;2023-09-08T08:38:04;100981.47;;;36.23;32.93
54455;BME280;40364;52.270;10.546;2023-09-08T08:40:31;100981.13;;;36.41;32.98
54455;BME280;40364;52.270;10.546;2023-09-08T08:43:00;100983.03;;;35.93;31.92
54455;BME280;40364;52.270;10.546;2023-09-08T08:45:29;100984.13;;;35.55;30.74
54455;BME280;40364;52.270;10.546;2023-09-08T08:47:56;100988.34;;;35.74;30.07
54455;BME280;40364;52.270;10.546;2023-09-08T08:50:24;100984.81;;;34.59;29.85
54455;BME280;40364;52.270;10.546;2023-09-08T08:52:52;100982.00;;;35.15;30.45
54455;BME280;40364;52.270;10.546;2023-09-08T08:55:18;100981.34;;;36.32;28.78
54455;BME280;40364;52.270;10.546;2023-09-08T08:57:45;100978.81;;;34.63;30.94
54455;BME280;40364;52.270;10.546;2023-09-08T09:00:13;100978.47;;;36.12;28.77
54455;BME280;40364;52.270;10.546;2023-09-08T09:02:42;100967.81;;;36.55;28.47
54455;BME280;40364;52.270;10.546;2023-09-08T09:05:11;100971.06;;;36.31;28.39
54455;BME280;40364;52.270;10.546;2023-09-08T09:07:38;100970.78;;;36.09;28.86
54455;BME280;40364;52.270;10.546;2023-09-08T09:10:07;100973.75;;;35.89;29.06
54455;BME280;40364;52.270;10.546;2023-09-08T09:12:36;100967.91;;;35.83;28.92
54455;BME280;40364;52.270;10.546;2023-09-08T09:15:04;100963.97;;;36.12;28.72
54455;BME280;40364;52.270;10.546;2023-09-08T09:17:32;100964.75;;;36.07;28.57
54455;BME280;40364;52.270;10.546;2023-09-08T09:20:13;100966.94;;;35.46;29.35
54455;BME280;40364;52.270;10.546;2023-09-08T09:22:40;100968.66;;;34.82;30.40
54455;BME280;40364;52.270;10.546;2023-09-08T09:25:09;100961.38;;;35.48;29.39
54455;BME280;40364;52.270;10.546;2023-09-08T09:27:36;100972.72;;;36.75;27.65
54455;BME280;40364;52.270;10.546;2023-09-08T09:30:07;100969.69;;;36.58;28.38
54455;BME280;40364;52.270;10.546;2023-09-08T09:32:34;100971.66;;;35.08;29.71
54455;BME280;40364;52.270;10.546;2023-09-08T09:35:00;100976.59;;;34.87;29.76
54455;BME280;40364;52.270;10.546;2023-09-08T09:37:29;100971.81;;;35.80;29.89
54455;BME280;40364;52.270;10.546;2023-09-08T09:39:56;100972.09;;;36.08;29.27
54455;BME280;40364;52.270;10.546;2023-09-08T09:42:24;100965.66;;;36.82;27.72
54455;BME280;40364;52.270;10.546;2023-09-08T09:44:51;100967.31;;;36.25;28.86
54455;BME280;40364;52.270;10.546;2023-09-08T09:47:19;100966.75;;;35.55;28.42
54455;BME280;40364;52.270;10.546;2023-09-08T09:49:47;100959.91;;;37.35;27.27
54455;BME280;40364;52.270;10.546;2023-09-08T09:52:20;100960.38;;;37.88;27.40
54455;BME280;40364;52.270;10.546;2023-09-08T09:54:48;100962.34;;;37.48;27.02
54455;BME280;40364;52.270;10.546;2023-09-08T09:57:20;100965.81;;;36.35;27.80
54455;BME280;40364;52.270;10.546;2023-09-08T09:59:49;100962.88;;;36.09;28.15
54455;BME280;40364;52.270;10.546;2023-09-08T10:02:19;100964.44;;;36.05;27.78
54455;BME280;40364;52.270;10.546;2023-09-08T10:04:47;100952.38;;;35.86;28.16
54455;BME280;40364;52.270;10.546;2023-09-08T10:07:15;100953.78;;;36.22;27.73
54455;BME280;40364;52.270;10.546;2023-09-08T10:09:42;100966.03;;;36.06;27.57
54455;BME280;40364;52.270;10.546;2023-09-08T10:12:12;100944.44;;;37.07;26.96
54455;BME280;40364;52.270;10.546;2023-09-08T10:14:41;100956.34;;;36.15;28.42
54455;BME280;40364;52.270;10.546;2023-09-08T10:17:14;100956.00;;;36.96;27.46
54455;BME280;40364;52.270;10.546;2023-09-08T10:19:43;100957.13;;;34.53;29.79
54455;BME280;40364;52.270;10.546;2023-09-08T10:22:18;100956.56;;;35.39;28.76
54455;BME280;40364;52.270;10.546;2023-09-08T10:24:46;100957.38;;;35.86;28.89
54455;BME280;40364;52.270;10.546;2023-09-08T10:27:15;100949.56;;;36.81;27.23
54455;BME280;40364;52.270;10.546;2023-09-08T10:29:44;100949.06;;;37.30;27.01
54455;BME280;40364;52.270;10.546;2023-09-08T10:32:13;100938.66;;;37.72;27.28
54455;BME280;40364;52.270;10.546;2023-09-08T10:34:41;100946.03;;;37.08;26.32
54455;BME280;40364;52.270;10.546;2023-09-08T10:37:21;100937.69;;;38.53;25.19
54455;BME280;40364;52.270;10.546;2023-09-08T10:39:50;100945.59;;;37.86;26.22
54455;BME280;40364;52.270;10.546;2023-09-08T10:42:24;100950.19;;;37.44;25.87
54455;BME280;40364;52.270;10.546;2023-09-08T10:44:58;100932.88;;;37.78;25.82
54455;BME280;40364;52.270;10.546;2023-09-08T10:47:33;100936.34;;;38.54;25.01
54455;BME280;40364;52.270;10.546;2023-09-08T10:50:02;100940.28;;;39.13;24.07
54455;BME280;40364;52.270;10.546;2023-09-08T10:52:30;100937.28;;;39.82;23.78
54455;BME280;40364;52.270;10.546;2023-09-08T10:54:58;100941.13;;;40.06;23.52
54455;BME280;40364;52.270;10.546;2023-09-08T10:57:27;100929.00;;;39.50;23.75
54455;BME280;40364;52.270;10.546;2023-09-08T10:59:57;100942.47;;;38.28;25.10
54455;BME280;40364;52.270;10.546;2023-09-08T11:02:34;100932.97;;;40.65;22.83
54455;BME280;40364;52.270;10.546;2023-09-08T11:05:02;100941.94;;;40.97;22.92
54455;BME280;40364;52.270;10.546;2023-09-08T11:07:30;100937.66;;;40.08;22.81
54455;BME280;40364;52.270;10.546;2023-09-08T11:09:57;100943.34;;;39.43;23.26
54455;BME280;40364;52.270;10.546;2023-09-08T11:12:26;100928.53;;;39.35;23.95
54455;BME280;40364;52.270;10.546;2023-09-08T11:14:53;100941.06;;;40.12;22.94
54455;BME280;40364;52.270;10.546;2023-09-08T11:17:20;100934.28;;;38.66;23.73
54455;BME280;40364;52.270;10.546;2023-09-08T11:19:49;100930.75;;;39.06;23.51
54455;BME280;40364;52.270;10.546;2023-09-08T11:22:16;100933.53;;;39.46;23.58
54455;BME280;40364;52.270;10.546;2023-09-08T11:24:43;100922.00;;;41.82;21.62
54455;BME280;40364;52.270;10.546;2023-09-08T11:27:11;100926.59;;;41.58;21.91
54455;BME280;40364;52.270;10.546;2023-09-08T11:29:38;100926.41;;;42.07;20.71
54455;BME280;40364;52.270;10.546;2023-09-08T11:32:07;100921.66;;;42.94;20.31
54455;BME280;40364;52.270;10.546;2023-09-08T11:34:34;100926.63;;;40.61;22.21
54455;BME280;40364;52.270;10.546;2023-09-08T11:37:05;100924.06;;;41.00;21.63
54455;BME280;40364;52.270;10.546;2023-09-08T11:39:36;100924.41;;;42.60;20.14
54455;BME280;40364;52.270;10.546;2023-09-08T11:42:03;100924.03;;;41.87;21.16
54455;BME280;40364;52.270;10.546;2023-09-08T11:44:30;100915.25;;;42.96;20.36
54455;BME280;40364;52.270;10.546;2023-09-08T11:46:57;100915.66;;;41.16;21.15
54455;BME280;40364;52.270;10.546;2023-09-08T11:49:25;100916.59;;;41.86;20.54
54455;BME280;40364;52.270;10.546;2023-09-08T11:51:51;100916.84;;;41.88;20.45
54455;BME280;40364;52.270;10.546;2023-09-08T11:54:19;100917.84;;;40.91;21.24
54455;BME280;40364;52.270;10.546;2023-09-08T11:56:46;100914.13;;;41.90;19.80
54455;BME280;40364;52.270;10.546;2023-09-08T11:59:13;100912.59;;;42.66;19.53
54455;BME280;40364;52.270;10.546;2023-09-08T12:01:40;100909.78;;;42.60;19.88
54455;BME280;40364;52.270;10.546;2023-09-08T12:04:16;100906.09;;;43.39;18.64
54455;BME280;40364;52.270;10.546;2023-09-08T12:06:44;100910.56;;;43.53;18.51
54455;BME280;40364;52.270;10.546;2023-09-08T12:09:11;100901.81;;;43.40;18.40
54455;BME280;40364;52.270;10.546;2023-09-08T12:11:40;100900.88;;;43.45;18.97
54455;BME280;40364;52.270;10.546;2023-09-08T12:14:09;100899.22;;;44.67;18.38
54455;BME280;40364;52.270;10.546;2023-09-08T12:16:36;100896.53;;;44.77;17.67
54455;BME280;40364;52.270;10.546;2023-09-08T12:19:03;100897.75;;;43.77;18.10
54455;BME280;40364;52.270;10.546;2023-09-08T12:21:29;100900.09;;;42.65;17.88
54455;BME280;40364;52.270;10.546;2023-09-08T12:23:57;100884.59;;;43.71;17.66
54455;BME280;40364;52.270;10.546;2023-09-08T12:26:24;100883.81;;;43.91;17.60
54455;BME280;40364;52.270;10.546;2023-09-08T12:28:53;100885.69;;;44.64;17.69
54455;BME280;40364;52.270;10.546;2023-09-08T12:31:19;100881.47;;;43.55;18.59
54455;BME280;40364;52.270;10.546;2023-09-08T12:33:47;100885.28;;;44.88;16.28
54455;BME280;40364;52.270;10.546;2023-09-08T12:36:14;100873.59;;;45.40;17.04
54455;BME280;40364;52.270;10.546;2023-09-08T12:38:47;100885.72;;;44.72;17.28
54455;BME280;40364;52.270;10.546;2023-09-08T12:41:14;100884.03;;;46.53;15.59
54455;BME280;40364;52.270;10.546;2023-09-08T12:43:41;100884.22;;;46.09;16.61
54455;BME280;40364;52.270;10.546;2023-09-08T12:46:09;100883.94;;;45.77;16.45